North Dartmouth, Massachusetts
Current Conditions -  °F | °C
As of 7:53 PM on Wednesday 26 Nov 2014 (Local Time) from KEWB Reporting Station
Light Rain Light Rain  
Wind Chill: 36°   Ceiling: 1200
Heat Index: 43°   Visibility: 10mi
Dew Point: 41°   Wind: 14mph
Humidity: 93%   Direction: 20°NNE
Pressure: 29.64"   Gusts: 30mph
Location:  41.64°N, 70.97°W
Report Text: KEWB 270053Z 02012G26KT 340V050 10SM -RA OVC012 06/05 A2964 RMK AO2 PK WND 06036/0037 SLP036 P0004 T00610050
Loading
Personal Weather Stations






























Interactive Weather Map New forecast layout! Learn more

10-Day Weather Forecast

Advertisements
Track Severe Weather on mobile